Time;durP1;ratioP1;P1;durP2;ratioP2;P2;SDS_P1;SDS_P2;PMS_P1;PMS_P2;Temp;Humidity;BMP_temperature;BMP_pressure;BME280_temperature;BME280_humidity;BME280_pressure;Samples;Min_cycle;Max_cycle;Signal;HPM_P1;HPM_P2
2024/03/19 00:01:33;;;;;;;3.22;1.50;;;14.00;99.90;;;;;;4132731;28;20054;-58
2024/03/19 00:03:34;;;;;;;2.05;1.15;;;14.00;99.90;;;;;;4133427;28;20083;-55
2024/03/19 00:05:37;;;;;;;1.83;1.25;;;14.00;99.90;;;;;;4133467;28;20074;-55
2024/03/19 00:07:38;;;;;;;2.08;1.33;;;14.00;99.90;;;;;;4133125;28;20062;-62
2024/03/19 00:09:39;;;;;;;3.08;2.03;;;14.00;99.90;;;;;;4117077;28;20475;-55
2024/03/19 00:11:40;;;;;;;3.55;1.55;;;14.00;99.90;;;;;;4132993;28;20054;-55
2024/03/19 00:13:41;;;;;;;5.47;1.98;;;14.00;99.90;;;;;;4132485;28;20046;-54
2024/03/19 00:15:44;;;;;;;9.27;2.47;;;14.00;99.90;;;;;;4132102;28;20047;-58
2024/03/19 00:17:46;;;;;;;4.13;2.03;;;14.00;99.90;;;;;;4132176;28;20497;-55
2024/03/19 00:19:47;;;;;;;7.38;3.22;;;14.00;99.90;;;;;;4131733;28;20140;-55
2024/03/19 00:21:50;;;;;;;3.03;1.63;;;14.00;99.90;;;;;;4131841;28;20054;-55
2024/03/19 00:23:52;;;;;;;4.72;3.03;;;13.90;99.90;;;;;;4131707;28;20061;-55
2024/03/19 00:25:53;;;;;;;1.98;1.33;;;13.90;99.90;;;;;;4131607;28;20133;-54
2024/03/19 00:27:54;;;;;;;4.93;1.30;;;13.90;99.90;;;;;;4131875;28;20042;-55
2024/03/19 00:29:55;;;;;;;6.10;2.63;;;13.80;99.90;;;;;;4131514;28;20055;-55
2024/03/19 00:31:56;;;;;;;4.53;1.30;;;13.70;99.90;;;;;;4131674;28;20445;-55
2024/03/19 00:33:58;;;;;;;3.92;1.40;;;13.70;99.90;;;;;;4131527;28;20486;-54
2024/03/19 00:35:59;;;;;;;1.60;1.15;;;13.80;99.90;;;;;;4131730;28;20054;-54
2024/03/19 00:38:03;;;;;;;2.63;1.50;;;13.90;99.90;;;;;;4115160;28;20146;-55
2024/03/19 00:40:10;;;;;;;2.00;1.27;;;13.70;99.90;;;;;;4131353;28;20054;-57
2024/03/19 00:42:11;;;;;;;4.22;1.85;;;13.60;99.90;;;;;;4131303;28;20046;-55
2024/03/19 00:44:12;;;;;;;2.35;1.67;;;13.50;99.90;;;;;;4131163;28;20498;-55
2024/03/19 00:46:13;;;;;;;2.15;1.25;;;13.40;99.90;;;;;;4131378;28;20046;-55
2024/03/19 00:48:14;;;;;;;3.20;1.52;;;13.50;99.90;;;;;;4131341;28;20038;-55
2024/03/19 00:50:16;;;;;;;2.13;1.40;;;13.60;99.90;;;;;;4131498;28;20572;-55
2024/03/19 00:52:17;;;;;;;3.45;2.22;;;13.60;99.90;;;;;;4133179;28;20097;-55
2024/03/19 00:54:19;;;;;;;2.95;1.45;;;13.60;99.90;;;;;;4134148;28;20116;-55
2024/03/19 00:56:21;;;;;;;1.77;1.60;;;13.70;99.90;;;;;;4133711;28;20052;-67
2024/03/19 00:58:22;;;;;;;2.58;1.33;;;13.70;99.90;;;;;;4133400;28;20153;-58
2024/03/19 01:00:23;;;;;;;6.03;1.77;;;13.60;99.90;;;;;;4131988;28;20614;-55
2024/03/19 01:02:24;;;;;;;4.88;2.15;;;13.40;99.90;;;;;;4131103;28;20050;-55
2024/03/19 01:04:25;;;;;;;2.72;1.50;;;13.40;99.90;;;;;;4131157;28;20066;-55
2024/03/19 01:06:26;;;;;;;3.13;1.50;;;13.50;99.90;;;;;;4131055;28;20050;-55
2024/03/19 01:08:28;;;;;;;2.45;1.30;;;13.40;99.90;;;;;;4131354;28;20046;-55
2024/03/19 01:10:30;;;;;;;3.13;1.95;;;13.30;99.90;;;;;;4131379;28;20049;-55
2024/03/19 01:12:31;;;;;;;2.42;1.10;;;13.20;99.90;;;;;;4131796;28;20117;-55
2024/03/19 01:14:34;;;;;;;4.10;2.05;;;13.20;99.90;;;;;;4131818;28;20510;-57
2024/03/19 01:16:35;;;;;;;4.25;1.65;;;13.20;99.90;;;;;;4131601;28;20065;-55
2024/03/19 01:18:36;;;;;;;3.42;1.70;;;13.30;99.90;;;;;;4131514;28;20162;-58
2024/03/19 01:20:38;;;;;;;2.00;1.08;;;13.40;99.90;;;;;;4131823;28;20386;-54
2024/03/19 01:22:39;;;;;;;1.20;1.02;;;13.20;99.90;;;;;;4114554;28;20058;-55
2024/03/19 01:24:41;;;;;;;3.38;1.50;;;13.30;99.90;;;;;;4130878;28;20437;-54
2024/03/19 01:26:43;;;;;;;1.48;1.20;;;13.30;99.90;;;;;;4130953;28;20048;-54
2024/03/19 01:28:45;;;;;;;3.13;1.88;;;13.40;99.90;;;;;;4114448;28;20438;-55
2024/03/19 01:30:46;;;;;;;2.58;1.08;;;13.40;99.90;;;;;;4130750;28;20050;-60
2024/03/19 01:32:47;;;;;;;2.47;1.67;;;13.40;99.90;;;;;;4131319;28;20546;-54
2024/03/19 01:34:49;;;;;;;2.75;2.30;;;13.50;99.90;;;;;;4131262;28;20529;-61
2024/03/19 01:36:50;;;;;;;10.60;2.85;;;13.50;99.90;;;;;;4131446;28;20061;-55
2024/03/19 01:38:51;;;;;;;4.32;1.70;;;13.50;99.90;;;;;;4131227;28;20413;-55
2024/03/19 01:40:52;;;;;;;2.88;1.63;;;13.40;99.90;;;;;;4130217;28;20057;-55
2024/03/19 01:42:55;;;;;;;2.03;0.90;;;13.30;99.90;;;;;;4130004;28;20042;-56
2024/03/19 01:45:08;;;;;;;3.20;1.70;;;13.30;99.90;;;;;;4130435;28;20089;-55
2024/03/19 01:47:10;;;;;;;6.43;1.55;;;13.40;99.90;;;;;;4130498;28;20049;-59
2024/03/19 01:49:12;;;;;;;1.98;1.10;;;13.30;99.90;;;;;;4130437;28;20050;-56
2024/03/19 01:51:15;;;;;;;4.95;1.40;;;13.30;99.90;;;;;;4114372;28;20055;-61
2024/03/19 01:53:16;;;;;;;4.55;1.77;;;13.30;99.90;;;;;;4131091;28;20046;-55
2024/03/19 01:55:19;;;;;;;6.50;1.85;;;13.30;99.90;;;;;;4131237;28;20050;-58
2024/03/19 01:57:21;;;;;;;4.80;1.20;;;13.30;99.90;;;;;;4130726;28;20051;-55
2024/03/19 01:59:24;;;;;;;3.33;1.92;;;13.30;99.90;;;;;;4130474;28;20065;-54
2024/03/19 02:01:25;;;;;;;1.40;0.90;;;13.40;99.90;;;;;;4130392;28;20047;-56
2024/03/19 02:03:26;;;;;;;2.58;1.23;;;13.40;99.90;;;;;;4130327;28;20051;-55
2024/03/19 02:05:27;;;;;;;2.80;1.30;;;13.40;99.90;;;;;;4130450;28;20042;-54
2024/03/19 02:07:28;;;;;;;2.50;0.93;;;13.40;99.90;;;;;;4130428;28;20046;-54
2024/03/19 02:09:29;;;;;;;1.70;1.00;;;13.40;99.90;;;;;;4130218;28;20441;-55
2024/03/19 02:11:31;;;;;;;1.65;0.77;;;13.40;99.90;;;;;;4129732;28;20108;-56
2024/03/19 02:13:32;;;;;;;2.30;2.10;;;13.40;99.90;;;;;;4130437;28;20059;-55
2024/03/19 02:15:35;;;;;;;1.27;0.90;;;13.40;99.90;;;;;;4130054;28;20344;-55
2024/03/19 02:17:37;;;;;;;3.72;1.63;;;13.40;99.90;;;;;;4129982;28;20093;-56
2024/03/19 02:19:38;;;;;;;2.45;1.75;;;13.30;99.90;;;;;;4130189;28;20054;-55
2024/03/19 02:21:39;;;;;;;1.30;1.20;;;13.30;99.90;;;;;;4130252;28;20078;-54
2024/03/19 02:23:42;;;;;;;3.17;1.38;;;13.30;99.90;;;;;;4130105;28;20136;-54
2024/03/19 02:25:43;;;;;;;1.88;0.95;;;13.30;99.90;;;;;;4129831;28;20058;-54
2024/03/19 02:27:45;;;;;;;1.80;1.63;;;13.40;99.90;;;;;;4130107;28;20074;-55
2024/03/19 02:29:46;;;;;;;1.65;1.45;;;13.30;99.90;;;;;;4129879;28;20097;-54
2024/03/19 02:31:47;;;;;;;1.55;1.00;;;13.20;99.90;;;;;;4130161;28;20046;-55
2024/03/19 02:33:49;;;;;;;3.08;1.27;;;13.20;99.90;;;;;;4130168;28;20054;-55
2024/03/19 02:35:50;;;;;;;2.42;1.75;;;13.20;99.90;;;;;;4129863;28;20062;-55
2024/03/19 02:37:51;;;;;;;3.50;1.05;;;13.30;99.90;;;;;;4129962;28;20054;-55
2024/03/19 02:39:54;;;;;;;5.10;1.08;;;13.10;99.90;;;;;;4114010;28;20054;-56
2024/03/19 02:41:55;;;;;;;3.20;1.10;;;13.00;99.90;;;;;;4129642;28;20053;-55
2024/03/19 02:43:56;;;;;;;1.67;1.23;;;13.00;99.90;;;;;;4130026;28;20417;-55
2024/03/19 02:45:57;;;;;;;2.55;1.30;;;13.00;99.90;;;;;;4129942;28;20046;-55
2024/03/19 02:47:58;;;;;;;2.33;1.27;;;13.00;99.90;;;;;;4130184;28;20429;-55
2024/03/19 02:50:00;;;;;;;4.53;2.22;;;13.00;99.90;;;;;;4129903;28;20085;-54
2024/03/19 02:52:01;;;;;;;1.55;1.15;;;13.00;99.90;;;;;;4129657;28;20108;-54
2024/03/19 02:54:03;;;;;;;0.77;0.77;;;13.00;99.90;;;;;;4132120;28;20073;-54
2024/03/19 02:56:06;;;;;;;1.65;1.05;;;13.10;99.90;;;;;;4132947;28;20105;-55
2024/03/19 02:58:08;;;;;;;1.75;1.33;;;13.10;99.90;;;;;;4133551;28;20042;-55
2024/03/19 03:00:10;;;;;;;1.77;1.48;;;13.10;99.90;;;;;;4133731;28;20047;-55
2024/03/19 03:02:11;;;;;;;2.05;1.27;;;13.00;99.90;;;;;;4132932;28;20115;-55
2024/03/19 03:04:12;;;;;;;4.30;2.17;;;13.10;99.90;;;;;;4133333;28;20057;-54
2024/03/19 03:06:13;;;;;;;2.72;1.55;;;13.00;99.90;;;;;;4133407;28;20046;-54
2024/03/19 03:08:15;;;;;;;1.92;1.02;;;13.10;99.90;;;;;;4133181;28;20061;-54
2024/03/19 03:10:17;;;;;;;2.92;0.90;;;13.20;99.90;;;;;;4132894;28;20097;-55
2024/03/19 03:12:19;;;;;;;1.90;1.48;;;13.10;99.90;;;;;;4132935;28;20054;-55
2024/03/19 03:14:21;;;;;;;1.80;1.23;;;13.10;99.90;;;;;;4100908;29;20150;-55
2024/03/19 03:16:22;;;;;;;1.48;0.90;;;13.00;99.90;;;;;;4132752;28;20496;-55
2024/03/19 03:18:23;;;;;;;1.05;0.93;;;13.20;99.90;;;;;;4132784;28;20501;-55
2024/03/19 03:20:24;;;;;;;2.03;0.63;;;13.20;99.90;;;;;;4116754;28;20047;-55
2024/03/19 03:22:25;;;;;;;1.77;1.15;;;13.30;99.90;;;;;;4132654;28;20054;-55
2024/03/19 03:24:26;;;;;;;3.10;0.77;;;13.30;99.90;;;;;;4132335;28;20050;-54
2024/03/19 03:26:27;;;;;;;1.02;0.93;;;13.30;99.90;;;;;;4132617;28;20521;-55
2024/03/19 03:28:30;;;;;;;0.50;0.50;;;13.30;99.90;;;;;;4132586;28;20046;-55
2024/03/19 03:30:31;;;;;;;1.88;1.45;;;13.30;99.90;;;;;;4132556;28;20486;-56
2024/03/19 03:32:32;;;;;;;1.08;0.60;;;13.40;99.90;;;;;;4132585;28;20046;-55
2024/03/19 03:34:35;;;;;;;1.02;0.50;;;13.40;99.90;;;;;;4132636;28;20429;-55
2024/03/19 03:36:37;;;;;;;2.28;1.45;;;13.40;99.90;;;;;;4133013;28;20050;-54
2024/03/19 03:38:39;;;;;;;1.23;0.80;;;13.50;99.90;;;;;;4133227;28;20046;-56
2024/03/19 03:40:40;;;;;;;2.15;1.00;;;13.60;99.90;;;;;;4132965;28;20453;-54
2024/03/19 03:42:42;;;;;;;2.33;1.33;;;13.40;99.90;;;;;;4132469;28;20054;-55
2024/03/19 03:44:45;;;;;;;2.05;1.33;;;13.40;99.90;;;;;;4132729;28;20535;-55
2024/03/19 03:46:46;;;;;;;2.55;1.02;;;13.40;99.90;;;;;;4132431;28;20489;-55
2024/03/19 03:48:47;;;;;;;1.42;0.50;;;13.50;99.90;;;;;;4132515;28;20046;-55
2024/03/19 03:50:48;;;;;;;1.98;0.75;;;13.50;99.90;;;;;;4132143;28;20565;-54
2024/03/19 03:52:49;;;;;;;1.30;1.15;;;13.60;99.90;;;;;;4131881;28;20054;-54
2024/03/19 03:54:50;;;;;;;2.00;0.50;;;13.60;99.90;;;;;;4131960;28;20402;-55
2024/03/19 03:56:51;;;;;;;2.55;1.25;;;13.40;99.90;;;;;;4132041;28;20057;-56
2024/03/19 03:58:52;;;;;;;2.70;1.17;;;13.50;99.90;;;;;;4132047;28;20050;-54
2024/03/19 04:00:56;;;;;;;1.05;0.75;;;13.50;99.90;;;;;;4132279;28;20493;-55
2024/03/19 04:02:57;;;;;;;4.18;1.60;;;13.40;99.90;;;;;;4131990;28;20046;-55
2024/03/19 04:04:58;;;;;;;1.63;0.80;;;13.40;99.90;;;;;;4131953;28;20114;-55
2024/03/19 04:06:59;;;;;;;1.17;0.98;;;13.50;99.90;;;;;;4117470;28;20418;-56
2024/03/19 04:09:00;;;;;;;2.17;1.05;;;13.50;99.90;;;;;;4134134;28;20054;-58
2024/03/19 04:11:01;;;;;;;1.48;0.75;;;13.50;99.90;;;;;;4134514;28;20129;-61
2024/03/19 04:13:03;;;;;;;3.47;1.23;;;13.40;99.90;;;;;;4133794;28;20050;-55
2024/03/19 04:15:06;;;;;;;0.93;0.80;;;13.40;99.90;;;;;;4133001;28;20042;-60
2024/03/19 04:17:08;;;;;;;2.47;0.60;;;13.30;99.90;;;;;;4132527;28;20050;-55
2024/03/19 04:19:09;;;;;;;2.30;1.00;;;13.30;99.90;;;;;;4132313;28;20050;-56
2024/03/19 04:21:10;;;;;;;1.23;0.65;;;13.20;99.90;;;;;;4132675;28;20046;-56
2024/03/19 04:23:11;;;;;;;1.77;0.73;;;13.30;99.90;;;;;;4131742;28;20490;-55
2024/03/19 04:25:13;;;;;;;1.25;0.88;;;13.30;99.90;;;;;;4131705;28;20496;-55
2024/03/19 04:27:15;;;;;;;2.63;1.35;;;13.20;99.90;;;;;;4132318;28;20046;-55
2024/03/19 04:29:16;;;;;;;1.20;1.05;;;13.20;99.90;;;;;;4132293;28;20418;-60
2024/03/19 04:31:17;;;;;;;1.63;1.00;;;13.20;99.90;;;;;;4131827;28;20098;-55
2024/03/19 04:33:20;;;;;;;2.10;0.70;;;13.20;99.90;;;;;;4131377;28;20042;-54
2024/03/19 04:35:21;;;;;;;1.50;0.63;;;13.20;99.90;;;;;;4131665;28;20050;-54
2024/03/19 04:37:22;;;;;;;0.65;0.60;;;13.20;99.90;;;;;;4131046;28;20053;-55
2024/03/19 04:39:23;;;;;;;1.95;1.05;;;13.20;99.90;;;;;;4131287;28;20042;-55
2024/03/19 04:41:25;;;;;;;2.20;1.02;;;13.10;99.90;;;;;;4115554;28;20069;-55
2024/03/19 04:43:26;;;;;;;3.20;1.75;;;13.00;99.90;;;;;;4131362;28;20486;-55
2024/03/19 04:45:27;;;;;;;0.70;0.50;;;12.80;99.90;;;;;;4131433;28;20046;-56
2024/03/19 04:47:28;;;;;;;1.35;0.80;;;12.80;99.90;;;;;;4115271;28;20424;-55
2024/03/19 04:49:30;;;;;;;2.45;0.80;;;12.80;99.90;;;;;;4131312;28;20046;-55
2024/03/19 04:51:32;;;;;;;1.23;0.75;;;12.80;99.90;;;;;;4130596;28;20062;-55
2024/03/19 04:53:33;;;;;;;0.85;0.70;;;12.90;99.90;;;;;;4131261;28;20042;-55
2024/03/19 04:55:34;;;;;;;1.42;0.80;;;12.90;99.90;;;;;;4130961;28;20057;-55
2024/03/19 04:57:35;;;;;;;2.72;1.13;;;12.90;99.90;;;;;;4130825;28;20048;-55
2024/03/19 04:59:36;;;;;;;1.38;0.98;;;13.00;99.90;;;;;;4131162;28;20101;-55
2024/03/19 05:01:38;;;;;;;3.97;1.15;;;13.00;99.90;;;;;;4130307;28;20089;-55
2024/03/19 05:03:39;;;;;;;2.08;0.60;;;13.00;99.90;;;;;;4130824;28;20481;-55
2024/03/19 05:05:42;;;;;;;4.32;0.90;;;13.00;99.90;;;;;;4130730;28;20054;-55
2024/03/19 05:07:44;;;;;;;2.42;1.23;;;13.00;99.90;;;;;;4130761;28;20050;-56
2024/03/19 05:09:45;;;;;;;0.93;0.52;;;13.00;99.90;;;;;;4131105;28;20053;-55
2024/03/19 05:11:46;;;;;;;1.65;0.90;;;13.10;99.90;;;;;;4131205;28;20197;-56
2024/03/19 05:13:47;;;;;;;1.00;0.65;;;13.00;99.90;;;;;;4131188;28;20436;-56
2024/03/19 05:15:48;;;;;;;4.75;1.30;;;12.90;99.90;;;;;;4130545;28;20050;-54
2024/03/19 05:17:50;;;;;;;2.75;1.35;;;12.80;99.90;;;;;;4131058;28;20058;-55
2024/03/19 05:19:52;;;;;;;0.95;0.50;;;12.80;99.90;;;;;;4114707;28;20383;-55
2024/03/19 05:21:54;;;;;;;1.95;1.00;;;12.70;99.90;;;;;;4132407;28;20490;-67
2024/03/19 05:23:55;;;;;;;13.85;1.02;;;12.70;99.90;;;;;;4132487;28;20518;-56
2024/03/19 05:25:57;;;;;;;0.73;0.63;;;12.80;99.90;;;;;;4131110;28;20057;-54
2024/03/19 05:27:58;;;;;;;2.17;1.42;;;12.80;99.90;;;;;;4130970;28;20042;-55
2024/03/19 05:29:59;;;;;;;1.20;0.80;;;12.80;99.90;;;;;;4130725;28;20050;-55
2024/03/19 05:32:00;;;;;;;1.00;0.60;;;12.80;99.90;;;;;;4131346;28;20042;-54
2024/03/19 05:34:01;;;;;;;3.08;1.27;;;12.80;99.90;;;;;;4131884;28;20552;-57
2024/03/19 05:36:03;;;;;;;1.08;0.73;;;12.70;99.90;;;;;;4131571;28;20056;-54
2024/03/19 05:38:05;;;;;;;2.30;1.33;;;12.80;99.90;;;;;;4131300;28;20100;-55
2024/03/19 05:40:09;;;;;;;1.63;1.23;;;12.70;99.90;;;;;;4131627;28;20113;-55
2024/03/19 05:42:11;;;;;;;7.68;0.90;;;12.60;99.90;;;;;;4131451;28;20050;-55
2024/03/19 05:44:12;;;;;;;1.17;1.08;;;12.50;99.90;;;;;;4131468;28;20395;-55
2024/03/19 05:46:14;;;;;;;0.43;0.43;;;12.60;99.90;;;;;;4131153;28;20105;-56
2024/03/19 05:48:15;;;;;;;2.38;1.05;;;12.60;99.90;;;;;;4115112;28;20054;-55
2024/03/19 05:50:16;;;;;;;1.13;0.90;;;12.50;99.90;;;;;;4130259;28;20050;-55
2024/03/19 05:52:17;;;;;;;2.75;2.53;;;12.50;99.90;;;;;;4130663;28;20153;-55
2024/03/19 05:54:19;;;;;;;4.90;2.38;;;12.60;99.90;;;;;;4130597;28;20057;-55
2024/03/19 05:56:20;;;;;;;3.28;1.00;;;12.60;99.90;;;;;;4130149;28;20054;-55
2024/03/19 05:58:22;;;;;;;1.75;1.25;;;12.60;99.90;;;;;;4130488;28;20042;-55
2024/03/19 06:00:23;;;;;;;3.60;1.73;;;12.60;99.90;;;;;;4114389;28;20058;-55
2024/03/19 06:02:24;;;;;;;7.53;3.03;;;12.60;99.90;;;;;;4131308;28;20046;-55
2024/03/19 06:04:25;;;;;;;1.98;1.20;;;12.60;99.90;;;;;;4131603;28;20046;-56
2024/03/19 06:06:26;;;;;;;6.43;1.00;;;12.70;99.90;;;;;;4130251;28;20105;-54
2024/03/19 06:08:28;;;;;;;3.22;1.10;;;12.70;99.90;;;;;;4130120;28;20465;-54
2024/03/19 06:10:32;;;;;;;2.35;1.25;;;12.90;99.90;;;;;;4130426;28;20042;-54
2024/03/19 06:12:33;;;;;;;2.17;1.23;;;12.80;99.90;;;;;;4130337;28;20473;-55
2024/03/19 06:14:34;;;;;;;1.45;1.00;;;12.90;99.90;;;;;;4130311;28;20465;-55
2024/03/19 06:16:35;;;;;;;3.50;0.75;;;12.90;99.90;;;;;;4131560;28;20456;-55
2024/03/19 06:18:37;;;;;;;3.20;1.48;;;12.80;99.90;;;;;;4130274;28;20101;-55
2024/03/19 06:20:38;;;;;;;2.13;1.45;;;12.90;99.90;;;;;;4130511;28;20057;-53
2024/03/19 06:22:39;;;;;;;1.40;0.75;;;12.90;99.90;;;;;;4130395;28;20141;-55
2024/03/19 06:24:41;;;;;;;1.33;0.80;;;13.00;99.90;;;;;;4130392;28;20395;-55
2024/03/19 06:26:44;;;;;;;1.20;0.98;;;13.10;99.90;;;;;;4130071;28;20050;-54
2024/03/19 06:28:45;;;;;;;1.83;1.10;;;13.10;99.90;;;;;;4117482;28;20499;-55
2024/03/19 06:30:46;;;;;;;1.55;1.00;;;13.20;99.90;;;;;;4133432;28;20050;-55
2024/03/19 06:32:47;;;;;;;2.90;0.77;;;13.20;99.90;;;;;;4133081;28;20517;-55
2024/03/19 06:34:48;;;;;;;12.20;1.95;;;13.20;99.90;;;;;;4133382;28;20050;-55
2024/03/19 06:36:52;;;;;;;1.70;0.88;;;13.20;99.90;;;;;;4117201;28;20054;-55
2024/03/19 06:38:53;;;;;;;3.55;2.03;;;13.20;99.90;;;;;;4133307;28;20051;-55
2024/03/19 06:40:54;;;;;;;5.47;1.67;;;13.20;99.90;;;;;;4133381;28;20116;-55
2024/03/19 06:42:56;;;;;;;8.18;1.10;;;13.20;99.90;;;;;;4133501;28;20046;-54
2024/03/19 06:44:57;;;;;;;2.20;1.63;;;13.20;99.90;;;;;;4133070;28;20494;-55
2024/03/19 06:46:58;;;;;;;1.27;1.10;;;13.20;99.90;;;;;;4133007;28;20088;-55
2024/03/19 06:48:59;;;;;;;2.10;0.93;;;13.20;99.90;;;;;;4133097;28;20533;-56
2024/03/19 06:51:01;;;;;;;1.75;1.50;;;13.10;99.90;;;;;;4132965;28;20541;-55
2024/03/19 06:53:02;;;;;;;1.05;0.73;;;13.20;99.90;;;;;;4133273;28;20437;-55
2024/03/19 06:55:04;;;;;;;2.15;1.40;;;13.20;99.90;;;;;;4132906;28;20940;-54
2024/03/19 06:57:05;;;;;;;1.00;0.60;;;13.30;99.90;;;;;;4132963;28;20053;-54
2024/03/19 06:59:10;;;;;;;1.35;1.05;;;13.40;99.90;;;;;;4133534;28;20513;-55
2024/03/19 07:01:12;;;;;;;1.48;0.80;;;13.50;99.90;;;;;;4133037;28;20230;-56
2024/03/19 07:03:13;;;;;;;2.35;0.80;;;13.50;99.90;;;;;;4132718;28;20050;-62
2024/03/19 07:05:14;;;;;;;0.80;0.60;;;13.50;99.90;;;;;;4133055;28;20183;-55
2024/03/19 07:07:17;;;;;;;1.80;0.82;;;13.60;99.90;;;;;;4134518;28;20046;-54
2024/03/19 07:09:18;;;;;;;1.67;0.90;;;13.70;99.90;;;;;;4135265;28;20046;-54
2024/03/19 07:11:20;;;;;;;1.25;1.13;;;13.70;99.90;;;;;;4134434;28;20042;-59
2024/03/19 07:13:21;;;;;;;2.05;1.23;;;13.70;99.90;;;;;;4133627;28;20053;-54
2024/03/19 07:15:23;;;;;;;2.25;0.93;;;13.80;99.90;;;;;;4132790;28;20046;-55
2024/03/19 07:17:26;;;;;;;1.50;0.80;;;13.80;99.90;;;;;;4132667;28;20116;-57
2024/03/19 07:19:27;;;;;;;1.20;0.75;;;13.70;99.90;;;;;;4133454;28;20050;-61
2024/03/19 07:21:28;;;;;;;2.60;1.45;;;13.80;99.90;;;;;;4134032;28;20441;-56
2024/03/19 07:23:29;;;;;;;1.42;0.90;;;13.80;99.90;;;;;;4134755;28;20061;-58
2024/03/19 07:25:30;;;;;;;4.97;1.52;;;13.90;99.90;;;;;;4134112;28;20051;-57
2024/03/19 07:27:33;;;;;;;1.42;1.02;;;14.00;99.90;;;;;;4133345;28;20042;-55
2024/03/19 07:29:35;;;;;;;3.78;2.28;;;13.90;99.90;;;;;;4133154;28;20058;-55
2024/03/19 07:31:40;;;;;;;1.67;0.85;;;14.00;99.90;;;;;;4132730;28;20050;-55
2024/03/19 07:33:41;;;;;;;;;;;14.00;99.90;;;;;;4132910;28;20058;-55
2024/03/19 07:35:42;;;;;;;2.65;1.58;;;14.10;99.90;;;;;;4132651;28;19944;-55
2024/03/19 07:37:43;;;;;;;3.00;1.15;;;14.20;99.90;;;;;;4132397;28;20491;-54
2024/03/19 07:39:44;;;;;;;8.23;2.95;;;14.10;99.90;;;;;;4131840;28;20046;-55
2024/03/19 07:41:47;;;;;;;2.75;1.58;;;14.20;99.90;;;;;;4132622;28;20290;-55
2024/03/19 07:43:49;;;;;;;0.95;0.82;;;14.20;99.90;;;;;;4132221;28;20046;-55
2024/03/19 07:45:51;;;;;;;5.80;1.27;;;14.20;99.90;;;;;;4131827;28;20053;-54
2024/03/19 07:47:53;;;;;;;1.65;0.60;;;14.10;99.90;;;;;;4132658;28;20050;-55
2024/03/19 07:49:55;;;;;;;2.92;1.00;;;14.10;99.90;;;;;;4132133;28;20050;-55
2024/03/19 07:51:56;;;;;;;2.35;0.85;;;14.20;99.90;;;;;;4132251;28;20148;-55
2024/03/19 07:53:57;;;;;;;3.03;0.93;;;14.20;99.90;;;;;;4132782;28;20104;-54
2024/03/19 07:55:58;;;;;;;2.78;1.13;;;14.40;99.90;;;;;;4132201;28;20053;-54
2024/03/19 07:58:00;;;;;;;1.38;0.75;;;14.40;99.90;;;;;;4132589;28;20046;-54
2024/03/19 08:00:09;;;;;;;2.95;1.20;;;14.40;99.90;;;;;;4131890;28;20046;-55
2024/03/19 08:02:10;;;;;;;2.90;0.70;;;14.50;99.90;;;;;;4132236;28;20046;-56
2024/03/19 08:04:13;;;;;;;1.88;1.35;;;14.50;99.90;;;;;;4132428;28;20518;-53
2024/03/19 08:06:14;;;;;;;2.78;1.02;;;14.60;99.90;;;;;;4132196;28;20054;-56
2024/03/19 08:08:16;;;;;;;1.30;0.55;;;14.70;99.90;;;;;;4132033;28;20046;-54
2024/03/19 08:10:18;;;;;;;1.27;0.65;;;14.80;99.90;;;;;;4131902;28;20049;-55
2024/03/19 08:12:20;;;;;;;1.17;0.60;;;14.80;99.90;;;;;;4131738;28;20548;-55
2024/03/19 08:14:21;;;;;;;2.05;0.85;;;14.80;99.90;;;;;;4131478;28;20050;-54
2024/03/19 08:16:23;;;;;;;3.40;1.33;;;14.80;99.90;;;;;;4131763;28;20053;-54
2024/03/19 08:18:24;;;;;;;1.33;1.05;;;14.80;99.90;;;;;;4131587;28;20125;-54
2024/03/19 08:20:26;;;;;;;2.33;1.02;;;14.80;99.90;;;;;;4131850;28;20046;-54
2024/03/19 08:22:28;;;;;;;0.98;0.50;;;14.80;99.90;;;;;;4115835;28;20058;-54
2024/03/19 08:24:29;;;;;;;4.60;0.93;;;14.90;99.90;;;;;;4132670;28;20417;-55
2024/03/19 08:26:33;;;;;;;0.85;0.57;;;14.80;99.90;;;;;;4132306;28;20057;-55
2024/03/19 08:28:34;;;;;;;2.30;0.63;;;14.90;99.90;;;;;;4131978;28;20057;-55
2024/03/19 08:30:35;;;;;;;0.73;0.50;;;14.90;99.90;;;;;;4132183;28;20093;-53
2024/03/19 08:32:37;;;;;;;1.58;0.52;;;14.70;99.70;;;;;;4131505;28;20102;-55
2024/03/19 08:34:39;;;;;;;1.10;0.40;;;14.90;99.90;;;;;;4131627;28;20536;-55
2024/03/19 08:36:42;;;;;;;2.85;1.05;;;15.00;99.90;;;;;;4131524;28;20048;-54
2024/03/19 08:38:43;;;;;;;0.57;0.35;;;14.90;99.50;;;;;;4131943;28;20074;-55
2024/03/19 08:40:45;;;;;;;0.75;0.43;;;14.90;99.90;;;;;;4131559;28;20054;-55
2024/03/19 08:42:47;;;;;;;2.80;0.40;;;15.00;99.80;;;;;;4131240;28;20092;-55
2024/03/19 08:44:48;;;;;;;1.17;1.08;;;14.90;99.80;;;;;;4131340;28;20116;-56
2024/03/19 08:46:49;;;;;;;2.13;0.73;;;15.00;99.80;;;;;;4131387;28;20062;-54
2024/03/19 08:48:50;;;;;;;0.30;0.30;;;15.00;99.60;;;;;;4131451;28;20129;-54
2024/03/19 08:50:51;;;;;;;0.75;0.57;;;15.00;99.60;;;;;;4130222;28;20062;-55
2024/03/19 08:52:54;;;;;;;1.50;0.60;;;15.00;99.70;;;;;;4132820;28;20133;-56
2024/03/19 08:54:55;;;;;;;2.55;1.35;;;15.20;99.50;;;;;;4131795;28;20050;-56
2024/03/19 08:56:56;;;;;;;3.33;1.15;;;15.30;99.50;;;;;;4131590;28;20474;-56
2024/03/19 08:58:57;;;;;;;11.30;1.38;;;15.40;99.60;;;;;;4130799;28;20418;-54
2024/03/19 09:00:58;;;;;;;5.90;0.90;;;15.50;98.80;;;;;;4131203;28;20387;-55
2024/03/19 09:02:59;;;;;;;0.88;0.68;;;15.50;98.50;;;;;;4131179;28;20124;-55
2024/03/19 09:05:00;;;;;;;0.77;0.65;;;15.50;98.70;;;;;;4130820;28;20426;-55
2024/03/19 09:07:02;;;;;;;1.85;0.50;;;15.70;99.10;;;;;;4131018;28;20446;-55
2024/03/19 09:09:04;;;;;;;1.38;0.60;;;15.70;98.80;;;;;;4131025;28;20069;-55
2024/03/19 09:11:05;;;;;;;0.40;0.40;;;15.80;98.50;;;;;;4131059;28;20493;-55
2024/03/19 09:13:07;;;;;;;1.73;1.17;;;15.70;97.90;;;;;;4130516;28;20120;-55
2024/03/19 09:15:12;;;;;;;4.22;1.77;;;15.50;97.90;;;;;;4130943;28;20050;-55
2024/03/19 09:17:13;;;;;;;1.42;0.63;;;15.50;98.30;;;;;;4130687;28;20514;-54
2024/03/19 09:19:14;;;;;;;3.67;1.30;;;15.60;97.90;;;;;;4114597;28;20055;-56
2024/03/19 09:21:15;;;;;;;4.28;1.58;;;15.70;98.00;;;;;;4130723;28;20418;-55
2024/03/19 09:23:17;;;;;;;2.10;0.60;;;15.70;97.50;;;;;;4130919;28;20054;-55
2024/03/19 09:25:19;;;;;;;3.00;1.13;;;15.80;98.10;;;;;;4130630;28;20429;-54
2024/03/19 09:27:20;;;;;;;1.80;1.15;;;15.80;97.60;;;;;;4130397;28;20469;-55
2024/03/19 09:29:21;;;;;;;9.00;1.95;;;15.90;97.50;;;;;;4130573;28;20455;-55
2024/03/19 09:31:23;;;;;;;1.75;0.75;;;15.90;97.60;;;;;;4114679;28;20042;-55
2024/03/19 09:33:24;;;;;;;1.40;0.70;;;15.90;97.60;;;;;;4130862;28;20093;-55
2024/03/19 09:35:26;;;;;;;1.02;0.60;;;15.80;97.30;;;;;;4114787;28;20560;-54
2024/03/19 09:37:28;;;;;;;0.75;0.75;;;15.70;97.50;;;;;;4130870;28;20108;-55
2024/03/19 09:39:29;;;;;;;1.83;1.02;;;15.60;97.80;;;;;;4131619;28;20053;-55
2024/03/19 09:41:33;;;;;;;0.90;0.45;;;15.70;97.70;;;;;;4131962;28;20050;-55
2024/03/19 09:43:36;;;;;;;2.35;1.05;;;15.70;97.80;;;;;;4132441;28;20050;-54
2024/03/19 09:45:39;;;;;;;0.73;0.47;;;15.70;97.70;;;;;;4114688;28;20082;-55
2024/03/19 09:47:41;;;;;;;4.07;0.57;;;15.70;97.90;;;;;;4130606;28;20410;-55
2024/03/19 09:49:42;;;;;;;4.15;0.52;;;15.90;97.90;;;;;;4114894;28;20051;-54
2024/03/19 09:51:43;;;;;;;1.77;0.75;;;16.00;97.10;;;;;;4131049;28;20178;-55
2024/03/19 09:53:46;;;;;;;0.60;0.60;;;16.00;97.10;;;;;;4130387;28;20104;-55
2024/03/19 09:55:47;;;;;;;0.82;0.50;;;16.10;97.50;;;;;;4130034;28;20042;-59
2024/03/19 09:57:51;;;;;;;0.60;0.50;;;16.10;96.90;;;;;;4114303;28;20055;-54
2024/03/19 09:59:53;;;;;;;0.57;0.40;;;16.10;96.70;;;;;;4130471;28;20058;-55
2024/03/19 10:01:55;;;;;;;1.35;0.50;;;16.00;96.80;;;;;;4130510;28;20049;-55
2024/03/19 10:03:57;;;;;;;2.88;0.95;;;16.00;96.80;;;;;;4130548;28;20494;-55
2024/03/19 10:05:58;;;;;;;0.95;0.50;;;16.10;96.70;;;;;;4130478;28;20055;-56
2024/03/19 10:07:59;;;;;;;1.17;0.30;;;16.10;97.20;;;;;;4130395;28;20046;-56
2024/03/19 10:10:00;;;;;;;1.00;0.82;;;16.30;97.00;;;;;;4130017;28;20046;-54
2024/03/19 10:12:02;;;;;;;2.08;0.63;;;16.20;96.80;;;;;;4130329;28;20046;-55
2024/03/19 10:14:04;;;;;;;2.22;0.55;;;16.30;96.70;;;;;;4129922;28;20105;-54
2024/03/19 10:16:06;;;;;;;0.73;0.73;;;16.30;96.10;;;;;;4130081;28;20050;-56
2024/03/19 10:18:11;;;;;;;1.55;1.15;;;16.30;96.80;;;;;;4130248;28;20050;-55
2024/03/19 10:20:12;;;;;;;0.80;0.65;;;16.30;96.40;;;;;;4130317;28;20047;-55
2024/03/19 10:22:13;;;;;;;1.55;0.70;;;16.30;95.70;;;;;;4130064;28;20540;-55
2024/03/19 10:24:15;;;;;;;2.60;0.50;;;16.30;95.90;;;;;;4129822;28;20069;-56
2024/03/19 10:26:16;;;;;;;1.33;0.40;;;16.40;96.30;;;;;;4129912;28;20061;-55
2024/03/19 10:28:19;;;;;;;0.80;0.80;;;16.50;95.80;;;;;;4130205;28;20130;-54
2024/03/19 10:30:22;;;;;;;0.95;0.30;;;16.50;95.70;;;;;;4130474;28;20050;-55
2024/03/19 10:32:23;;;;;;;1.10;0.50;;;16.40;95.60;;;;;;4130416;28;20116;-55
2024/03/19 10:34:24;;;;;;;1.08;0.30;;;16.30;96.30;;;;;;4131332;28;20486;-55